sensor_id;sensor_type;location;lat;lon;timestamp;P1;durP1;ratioP1;P2;durP2;ratioP2
3022;SDS011;1521;53.584;9.938;2023-03-11T00:01:29;36.47;;;19.50;;
3022;SDS011;1521;53.584;9.938;2023-03-11T00:03:55;35.30;;;20.00;;
3022;SDS011;1521;53.584;9.938;2023-03-11T00:06:20;40.40;;;19.27;;
3022;SDS011;1521;53.584;9.938;2023-03-11T00:08:46;36.13;;;19.37;;
3022;SDS011;1521;53.584;9.938;2023-03-11T00:11:12;41.23;;;20.37;;
3022;SDS011;1521;53.584;9.938;2023-03-11T00:13:37;35.37;;;19.00;;
3022;SDS011;1521;53.584;9.938;2023-03-11T00:16:04;37.13;;;20.23;;
3022;SDS011;1521;53.584;9.938;2023-03-11T00:18:30;37.20;;;19.03;;
3022;SDS011;1521;53.584;9.938;2023-03-11T00:20:57;36.90;;;19.50;;
3022;SDS011;1521;53.584;9.938;2023-03-11T00:23:23;42.10;;;20.67;;
3022;SDS011;1521;53.584;9.938;2023-03-11T00:25:50;38.97;;;21.33;;
3022;SDS011;1521;53.584;9.938;2023-03-11T00:28:16;41.70;;;21.10;;
3022;SDS011;1521;53.584;9.938;2023-03-11T00:30:43;41.67;;;20.63;;
3022;SDS011;1521;53.584;9.938;2023-03-11T00:33:10;38.40;;;20.73;;
3022;SDS011;1521;53.584;9.938;2023-03-11T00:35:37;37.23;;;20.67;;
3022;SDS011;1521;53.584;9.938;2023-03-11T00:38:04;40.77;;;21.60;;
3022;SDS011;1521;53.584;9.938;2023-03-11T00:40:32;42.60;;;21.30;;
3022;SDS011;1521;53.584;9.938;2023-03-11T00:42:59;38.13;;;19.70;;
3022;SDS011;1521;53.584;9.938;2023-03-11T00:45:25;43.20;;;20.50;;
3022;SDS011;1521;53.584;9.938;2023-03-11T00:47:51;40.33;;;20.23;;
3022;SDS011;1521;53.584;9.938;2023-03-11T00:50:22;36.97;;;19.57;;
3022;SDS011;1521;53.584;9.938;2023-03-11T00:52:50;45.00;;;20.77;;
3022;SDS011;1521;53.584;9.938;2023-03-11T00:55:18;44.97;;;22.17;;
3022;SDS011;1521;53.584;9.938;2023-03-11T00:57:46;40.33;;;21.47;;
3022;SDS011;1521;53.584;9.938;2023-03-11T01:00:15;44.97;;;22.10;;
3022;SDS011;1521;53.584;9.938;2023-03-11T01:02:42;49.63;;;22.30;;
3022;SDS011;1521;53.584;9.938;2023-03-11T01:05:08;43.13;;;22.57;;
3022;SDS011;1521;53.584;9.938;2023-03-11T01:07:34;37.00;;;19.87;;
3022;SDS011;1521;53.584;9.938;2023-03-11T01:10:00;40.60;;;20.93;;
3022;SDS011;1521;53.584;9.938;2023-03-11T01:12:26;41.73;;;20.63;;
3022;SDS011;1521;53.584;9.938;2023-03-11T01:14:52;38.57;;;21.37;;
3022;SDS011;1521;53.584;9.938;2023-03-11T01:17:18;37.57;;;20.40;;
3022;SDS011;1521;53.584;9.938;2023-03-11T01:19:46;42.73;;;20.67;;
3022;SDS011;1521;53.584;9.938;2023-03-11T01:22:12;36.83;;;19.67;;
3022;SDS011;1521;53.584;9.938;2023-03-11T01:24:37;43.00;;;21.60;;
3022;SDS011;1521;53.584;9.938;2023-03-11T01:27:03;42.27;;;21.57;;
3022;SDS011;1521;53.584;9.938;2023-03-11T01:29:29;37.03;;;19.77;;
3022;SDS011;1521;53.584;9.938;2023-03-11T01:31:54;40.07;;;19.87;;
3022;SDS011;1521;53.584;9.938;2023-03-11T01:34:20;44.10;;;22.03;;
3022;SDS011;1521;53.584;9.938;2023-03-11T01:36:45;39.77;;;19.77;;
3022;SDS011;1521;53.584;9.938;2023-03-11T01:39:11;40.00;;;20.10;;
3022;SDS011;1521;53.584;9.938;2023-03-11T01:41:36;35.37;;;18.47;;
3022;SDS011;1521;53.584;9.938;2023-03-11T01:44:02;36.13;;;18.40;;
3022;SDS011;1521;53.584;9.938;2023-03-11T01:49:14;36.87;;;19.60;;
3022;SDS011;1521;53.584;9.938;2023-03-11T01:51:40;35.27;;;18.50;;
3022;SDS011;1521;53.584;9.938;2023-03-11T01:54:27;35.13;;;18.90;;
3022;SDS011;1521;53.584;9.938;2023-03-11T01:56:56;33.57;;;18.77;;
3022;SDS011;1521;53.584;9.938;2023-03-11T01:59:24;36.67;;;19.10;;
3022;SDS011;1521;53.584;9.938;2023-03-11T02:01:57;35.33;;;18.60;;
3022;SDS011;1521;53.584;9.938;2023-03-11T02:04:37;31.97;;;18.17;;
3022;SDS011;1521;53.584;9.938;2023-03-11T02:07:06;33.00;;;18.37;;
3022;SDS011;1521;53.584;9.938;2023-03-11T02:09:33;35.30;;;17.93;;
3022;SDS011;1521;53.584;9.938;2023-03-11T02:11:59;34.17;;;19.07;;
3022;SDS011;1521;53.584;9.938;2023-03-11T02:14:25;34.33;;;18.83;;
3022;SDS011;1521;53.584;9.938;2023-03-11T02:16:54;36.07;;;17.53;;
3022;SDS011;1521;53.584;9.938;2023-03-11T02:22:16;35.83;;;19.20;;
3022;SDS011;1521;53.584;9.938;2023-03-11T02:24:44;37.83;;;19.87;;
3022;SDS011;1521;53.584;9.938;2023-03-11T02:27:17;42.63;;;20.93;;
3022;SDS011;1521;53.584;9.938;2023-03-11T02:29:45;36.90;;;19.23;;
3022;SDS011;1521;53.584;9.938;2023-03-11T02:32:13;37.93;;;18.73;;
3022;SDS011;1521;53.584;9.938;2023-03-11T02:34:39;38.47;;;19.60;;
3022;SDS011;1521;53.584;9.938;2023-03-11T02:37:07;43.90;;;21.60;;
3022;SDS011;1521;53.584;9.938;2023-03-11T02:42:27;38.17;;;20.10;;
3022;SDS011;1521;53.584;9.938;2023-03-11T02:45:00;37.13;;;18.83;;
3022;SDS011;1521;53.584;9.938;2023-03-11T02:47:29;35.73;;;18.33;;
3022;SDS011;1521;53.584;9.938;2023-03-11T02:49:56;39.83;;;18.90;;
3022;SDS011;1521;53.584;9.938;2023-03-11T02:52:24;38.33;;;19.43;;
3022;SDS011;1521;53.584;9.938;2023-03-11T02:54:51;41.17;;;19.87;;
3022;SDS011;1521;53.584;9.938;2023-03-11T02:57:17;36.57;;;18.60;;
3022;SDS011;1521;53.584;9.938;2023-03-11T02:59:42;37.53;;;17.97;;
3022;SDS011;1521;53.584;9.938;2023-03-11T03:02:08;42.37;;;18.90;;
3022;SDS011;1521;53.584;9.938;2023-03-11T03:04:33;34.27;;;18.13;;
3022;SDS011;1521;53.584;9.938;2023-03-11T03:06:59;34.67;;;18.10;;
3022;SDS011;1521;53.584;9.938;2023-03-11T03:09:25;36.00;;;19.17;;
3022;SDS011;1521;53.584;9.938;2023-03-11T03:11:50;37.53;;;18.27;;
3022;SDS011;1521;53.584;9.938;2023-03-11T03:14:16;32.67;;;17.93;;
3022;SDS011;1521;53.584;9.938;2023-03-11T03:16:41;37.30;;;18.93;;
3022;SDS011;1521;53.584;9.938;2023-03-11T03:19:07;28.20;;;15.20;;
3022;SDS011;1521;53.584;9.938;2023-03-11T03:21:32;30.63;;;17.13;;
3022;SDS011;1521;53.584;9.938;2023-03-11T03:23:58;36.00;;;18.30;;
3022;SDS011;1521;53.584;9.938;2023-03-11T03:26:23;33.23;;;18.27;;
3022;SDS011;1521;53.584;9.938;2023-03-11T03:28:49;37.33;;;17.03;;
3022;SDS011;1521;53.584;9.938;2023-03-11T03:31:15;34.30;;;16.60;;
3022;SDS011;1521;53.584;9.938;2023-03-11T03:33:40;32.33;;;17.33;;
3022;SDS011;1521;53.584;9.938;2023-03-11T03:36:06;39.20;;;17.97;;
3022;SDS011;1521;53.584;9.938;2023-03-11T03:38:34;32.37;;;17.40;;
3022;SDS011;1521;53.584;9.938;2023-03-11T03:40:59;31.77;;;16.77;;
3022;SDS011;1521;53.584;9.938;2023-03-11T03:43:25;33.20;;;16.70;;
3022;SDS011;1521;53.584;9.938;2023-03-11T03:45:57;32.67;;;16.23;;
3022;SDS011;1521;53.584;9.938;2023-03-11T03:48:24;32.17;;;16.83;;
3022;SDS011;1521;53.584;9.938;2023-03-11T03:50:50;34.87;;;17.87;;
3022;SDS011;1521;53.584;9.938;2023-03-11T03:53:16;31.30;;;16.67;;
3022;SDS011;1521;53.584;9.938;2023-03-11T03:55:41;36.73;;;16.83;;
3022;SDS011;1521;53.584;9.938;2023-03-11T03:58:07;30.27;;;15.83;;
3022;SDS011;1521;53.584;9.938;2023-03-11T04:00:33;30.90;;;15.50;;
3022;SDS011;1521;53.584;9.938;2023-03-11T04:02:59;33.00;;;16.37;;
3022;SDS011;1521;53.584;9.938;2023-03-11T04:05:25;34.40;;;16.70;;
3022;SDS011;1521;53.584;9.938;2023-03-11T04:07:51;34.60;;;16.70;;
3022;SDS011;1521;53.584;9.938;2023-03-11T04:10:18;27.03;;;15.37;;
3022;SDS011;1521;53.584;9.938;2023-03-11T04:12:44;28.27;;;15.27;;
3022;SDS011;1521;53.584;9.938;2023-03-11T04:15:10;28.73;;;15.40;;
3022;SDS011;1521;53.584;9.938;2023-03-11T04:17:36;29.17;;;15.20;;
3022;SDS011;1521;53.584;9.938;2023-03-11T04:20:02;29.33;;;15.60;;
3022;SDS011;1521;53.584;9.938;2023-03-11T04:22:29;30.00;;;16.03;;
3022;SDS011;1521;53.584;9.938;2023-03-11T04:24:54;28.60;;;14.80;;
3022;SDS011;1521;53.584;9.938;2023-03-11T04:27:20;28.00;;;15.67;;
3022;SDS011;1521;53.584;9.938;2023-03-11T04:29:45;26.90;;;14.13;;
3022;SDS011;1521;53.584;9.938;2023-03-11T04:32:11;29.67;;;14.93;;
3022;SDS011;1521;53.584;9.938;2023-03-11T04:34:36;25.40;;;15.10;;
3022;SDS011;1521;53.584;9.938;2023-03-11T04:37:02;27.67;;;15.30;;
3022;SDS011;1521;53.584;9.938;2023-03-11T04:39:28;27.27;;;14.40;;
3022;SDS011;1521;53.584;9.938;2023-03-11T04:41:53;25.67;;;14.03;;
3022;SDS011;1521;53.584;9.938;2023-03-11T04:44:19;27.93;;;15.10;;
3022;SDS011;1521;53.584;9.938;2023-03-11T04:46:44;26.27;;;13.83;;
3022;SDS011;1521;53.584;9.938;2023-03-11T04:49:10;28.90;;;14.83;;
3022;SDS011;1521;53.584;9.938;2023-03-11T04:51:35;28.17;;;14.67;;
3022;SDS011;1521;53.584;9.938;2023-03-11T04:54:01;29.73;;;13.33;;
3022;SDS011;1521;53.584;9.938;2023-03-11T04:56:27;28.00;;;14.43;;
3022;SDS011;1521;53.584;9.938;2023-03-11T04:58:52;30.80;;;13.63;;
3022;SDS011;1521;53.584;9.938;2023-03-11T05:01:18;26.43;;;14.13;;
3022;SDS011;1521;53.584;9.938;2023-03-11T05:03:44;26.47;;;12.97;;
3022;SDS011;1521;53.584;9.938;2023-03-11T05:06:10;23.37;;;12.70;;
3022;SDS011;1521;53.584;9.938;2023-03-11T05:08:35;25.77;;;13.97;;
3022;SDS011;1521;53.584;9.938;2023-03-11T05:11:01;18.93;;;11.67;;
3022;SDS011;1521;53.584;9.938;2023-03-11T05:13:27;22.47;;;12.37;;
3022;SDS011;1521;53.584;9.938;2023-03-11T05:15:52;23.90;;;13.13;;
3022;SDS011;1521;53.584;9.938;2023-03-11T05:18:18;24.37;;;11.73;;
3022;SDS011;1521;53.584;9.938;2023-03-11T05:20:43;22.87;;;12.23;;
3022;SDS011;1521;53.584;9.938;2023-03-11T05:23:09;23.57;;;13.47;;
3022;SDS011;1521;53.584;9.938;2023-03-11T05:25:35;23.63;;;12.13;;
3022;SDS011;1521;53.584;9.938;2023-03-11T05:28:00;22.57;;;13.13;;
3022;SDS011;1521;53.584;9.938;2023-03-11T05:30:26;26.73;;;13.23;;
3022;SDS011;1521;53.584;9.938;2023-03-11T05:32:52;26.90;;;13.33;;
3022;SDS011;1521;53.584;9.938;2023-03-11T05:35:17;24.73;;;13.47;;
3022;SDS011;1521;53.584;9.938;2023-03-11T05:37:43;21.37;;;12.80;;
3022;SDS011;1521;53.584;9.938;2023-03-11T05:40:10;28.63;;;14.27;;
3022;SDS011;1521;53.584;9.938;2023-03-11T05:42:36;29.80;;;13.60;;
3022;SDS011;1521;53.584;9.938;2023-03-11T05:45:04;23.00;;;13.07;;
3022;SDS011;1521;53.584;9.938;2023-03-11T05:47:30;26.67;;;14.60;;
3022;SDS011;1521;53.584;9.938;2023-03-11T05:49:55;27.23;;;14.23;;
3022;SDS011;1521;53.584;9.938;2023-03-11T05:52:21;29.50;;;15.60;;
3022;SDS011;1521;53.584;9.938;2023-03-11T05:54:50;26.67;;;13.77;;
3022;SDS011;1521;53.584;9.938;2023-03-11T05:57:16;27.40;;;14.93;;
3022;SDS011;1521;53.584;9.938;2023-03-11T05:59:43;30.70;;;14.33;;
3022;SDS011;1521;53.584;9.938;2023-03-11T06:02:08;28.47;;;14.67;;
3022;SDS011;1521;53.584;9.938;2023-03-11T06:04:34;29.93;;;13.90;;
3022;SDS011;1521;53.584;9.938;2023-03-11T06:07:00;29.37;;;14.17;;
3022;SDS011;1521;53.584;9.938;2023-03-11T06:09:25;27.67;;;13.50;;
3022;SDS011;1521;53.584;9.938;2023-03-11T06:11:51;26.37;;;14.23;;
3022;SDS011;1521;53.584;9.938;2023-03-11T06:14:16;30.77;;;13.83;;
3022;SDS011;1521;53.584;9.938;2023-03-11T06:16:42;26.13;;;14.23;;
3022;SDS011;1521;53.584;9.938;2023-03-11T06:19:08;31.53;;;14.80;;
3022;SDS011;1521;53.584;9.938;2023-03-11T06:21:33;28.23;;;14.03;;
3022;SDS011;1521;53.584;9.938;2023-03-11T06:23:59;29.50;;;13.70;;
3022;SDS011;1521;53.584;9.938;2023-03-11T06:26:24;30.40;;;14.97;;
3022;SDS011;1521;53.584;9.938;2023-03-11T06:28:50;28.73;;;14.27;;
3022;SDS011;1521;53.584;9.938;2023-03-11T06:31:20;26.43;;;13.90;;
3022;SDS011;1521;53.584;9.938;2023-03-11T06:33:51;29.43;;;13.80;;
3022;SDS011;1521;53.584;9.938;2023-03-11T06:36:19;29.93;;;14.53;;
3022;SDS011;1521;53.584;9.938;2023-03-11T06:38:46;32.43;;;14.37;;
3022;SDS011;1521;53.584;9.938;2023-03-11T06:41:13;28.47;;;14.53;;
3022;SDS011;1521;53.584;9.938;2023-03-11T06:43:39;28.13;;;13.97;;
3022;SDS011;1521;53.584;9.938;2023-03-11T06:46:09;28.63;;;14.23;;
3022;SDS011;1521;53.584;9.938;2023-03-11T06:48:36;26.30;;;13.00;;
3022;SDS011;1521;53.584;9.938;2023-03-11T06:51:02;26.83;;;14.20;;
3022;SDS011;1521;53.584;9.938;2023-03-11T06:53:28;25.53;;;13.53;;
3022;SDS011;1521;53.584;9.938;2023-03-11T06:56:01;26.07;;;13.93;;
3022;SDS011;1521;53.584;9.938;2023-03-11T06:58:32;29.73;;;13.57;;
3022;SDS011;1521;53.584;9.938;2023-03-11T07:00:59;24.33;;;13.63;;
3022;SDS011;1521;53.584;9.938;2023-03-11T07:03:26;26.43;;;13.70;;
3022;SDS011;1521;53.584;9.938;2023-03-11T07:05:52;20.93;;;12.40;;
3022;SDS011;1521;53.584;9.938;2023-03-11T07:08:17;32.07;;;13.30;;
3022;SDS011;1521;53.584;9.938;2023-03-11T07:10:43;22.10;;;12.83;;
3022;SDS011;1521;53.584;9.938;2023-03-11T07:13:09;20.63;;;11.37;;
3022;SDS011;1521;53.584;9.938;2023-03-11T07:15:34;21.60;;;12.27;;
3022;SDS011;1521;53.584;9.938;2023-03-11T07:18:00;23.90;;;12.07;;
3022;SDS011;1521;53.584;9.938;2023-03-11T07:20:26;19.67;;;11.80;;
3022;SDS011;1521;53.584;9.938;2023-03-11T07:22:51;20.80;;;11.33;;
3022;SDS011;1521;53.584;9.938;2023-03-11T07:25:17;23.90;;;13.17;;
3022;SDS011;1521;53.584;9.938;2023-03-11T07:27:43;21.57;;;12.80;;
3022;SDS011;1521;53.584;9.938;2023-03-11T07:30:09;22.77;;;12.60;;
3022;SDS011;1521;53.584;9.938;2023-03-11T07:32:35;16.60;;;11.30;;
3022;SDS011;1521;53.584;9.938;2023-03-11T07:35:00;17.70;;;10.57;;
3022;SDS011;1521;53.584;9.938;2023-03-11T07:37:26;17.80;;;9.87;;
3022;SDS011;1521;53.584;9.938;2023-03-11T07:39:51;14.73;;;9.60;;
3022;SDS011;1521;53.584;9.938;2023-03-11T07:42:17;14.60;;;9.07;;
3022;SDS011;1521;53.584;9.938;2023-03-11T07:44:43;21.57;;;9.77;;
3022;SDS011;1521;53.584;9.938;2023-03-11T07:47:08;11.07;;;8.07;;
3022;SDS011;1521;53.584;9.938;2023-03-11T07:49:34;20.90;;;10.33;;
3022;SDS011;1521;53.584;9.938;2023-03-11T07:52:00;10.20;;;7.30;;
3022;SDS011;1521;53.584;9.938;2023-03-11T07:54:25;12.53;;;7.87;;
3022;SDS011;1521;53.584;9.938;2023-03-11T07:56:51;11.80;;;7.90;;
3022;SDS011;1521;53.584;9.938;2023-03-11T07:59:16;11.07;;;6.83;;
3022;SDS011;1521;53.584;9.938;2023-03-11T08:01:42;10.60;;;6.37;;
3022;SDS011;1521;53.584;9.938;2023-03-11T08:04:11;8.00;;;6.43;;
3022;SDS011;1521;53.584;9.938;2023-03-11T08:06:38;10.43;;;7.07;;
3022;SDS011;1521;53.584;9.938;2023-03-11T08:09:07;11.40;;;7.53;;
3022;SDS011;1521;53.584;9.938;2023-03-11T08:11:33;11.53;;;6.33;;
3022;SDS011;1521;53.584;9.938;2023-03-11T08:13:59;9.33;;;5.80;;
3022;SDS011;1521;53.584;9.938;2023-03-11T08:16:25;9.83;;;6.33;;
3022;SDS011;1521;53.584;9.938;2023-03-11T08:18:51;11.53;;;6.30;;
3022;SDS011;1521;53.584;9.938;2023-03-11T08:21:18;8.93;;;6.30;;
3022;SDS011;1521;53.584;9.938;2023-03-11T08:23:46;10.97;;;5.90;;
3022;SDS011;1521;53.584;9.938;2023-03-11T08:26:13;8.07;;;5.93;;
3022;SDS011;1521;53.584;9.938;2023-03-11T08:28:41;8.40;;;5.80;;
3022;SDS011;1521;53.584;9.938;2023-03-11T08:31:14;11.63;;;6.23;;
3022;SDS011;1521;53.584;9.938;2023-03-11T08:33:45;8.93;;;5.70;;
3022;SDS011;1521;53.584;9.938;2023-03-11T08:36:13;8.20;;;5.47;;
3022;SDS011;1521;53.584;9.938;2023-03-11T08:38:39;6.60;;;5.53;;
3022;SDS011;1521;53.584;9.938;2023-03-11T08:41:06;8.67;;;5.40;;
3022;SDS011;1521;53.584;9.938;2023-03-11T08:43:31;8.40;;;5.00;;
3022;SDS011;1521;53.584;9.938;2023-03-11T08:46:00;6.93;;;5.10;;
3022;SDS011;1521;53.584;9.938;2023-03-11T08:48:30;7.90;;;4.70;;
3022;SDS011;1521;53.584;9.938;2023-03-11T08:50:56;9.83;;;4.90;;
3022;SDS011;1521;53.584;9.938;2023-03-11T08:53:23;9.33;;;4.80;;
3022;SDS011;1521;53.584;9.938;2023-03-11T08:55:49;5.67;;;4.20;;
3022;SDS011;1521;53.584;9.938;2023-03-11T08:58:16;7.40;;;5.00;;
3022;SDS011;1521;53.584;9.938;2023-03-11T09:00:42;5.40;;;4.03;;
3022;SDS011;1521;53.584;9.938;2023-03-11T09:03:08;6.50;;;4.33;;
3022;SDS011;1521;53.584;9.938;2023-03-11T09:05:34;8.43;;;4.50;;
3022;SDS011;1521;53.584;9.938;2023-03-11T09:08:00;7.27;;;4.63;;
3022;SDS011;1521;53.584;9.938;2023-03-11T09:10:27;9.13;;;4.23;;
3022;SDS011;1521;53.584;9.938;2023-03-11T09:12:53;5.30;;;3.87;;
3022;SDS011;1521;53.584;9.938;2023-03-11T09:15:18;6.33;;;4.07;;
3022;SDS011;1521;53.584;9.938;2023-03-11T09:17:44;8.67;;;4.30;;
3022;SDS011;1521;53.584;9.938;2023-03-11T09:20:11;4.67;;;3.90;;
3022;SDS011;1521;53.584;9.938;2023-03-11T09:22:38;7.83;;;3.80;;
3022;SDS011;1521;53.584;9.938;2023-03-11T09:25:03;6.03;;;3.80;;
3022;SDS011;1521;53.584;9.938;2023-03-11T09:27:29;7.23;;;4.03;;
3022;SDS011;1521;53.584;9.938;2023-03-11T09:29:55;4.30;;;3.47;;
3022;SDS011;1521;53.584;9.938;2023-03-11T09:32:20;5.63;;;3.53;;
3022;SDS011;1521;53.584;9.938;2023-03-11T09:34:46;6.53;;;3.40;;
3022;SDS011;1521;53.584;9.938;2023-03-11T09:37:11;5.40;;;3.90;;
3022;SDS011;1521;53.584;9.938;2023-03-11T09:39:37;5.80;;;3.50;;
3022;SDS011;1521;53.584;9.938;2023-03-11T09:47:37;8.67;;;3.47;;
3022;SDS011;1521;53.584;9.938;2023-03-11T09:55:28;5.10;;;3.20;;
3022;SDS011;1521;53.584;9.938;2023-03-11T09:57:56;5.10;;;3.23;;
3022;SDS011;1521;53.584;9.938;2023-03-11T10:00:24;7.60;;;3.70;;
3022;SDS011;1521;53.584;9.938;2023-03-11T10:02:50;13.80;;;4.33;;
3022;SDS011;1521;53.584;9.938;2023-03-11T10:05:19;11.03;;;3.77;;
3022;SDS011;1521;53.584;9.938;2023-03-11T10:07:56;5.93;;;3.80;;
3022;SDS011;1521;53.584;9.938;2023-03-11T10:10:29;6.47;;;4.00;;
3022;SDS011;1521;53.584;9.938;2023-03-11T10:15:44;7.13;;;3.60;;
3022;SDS011;1521;53.584;9.938;2023-03-11T10:27:03;4.57;;;3.20;;
3022;SDS011;1521;53.584;9.938;2023-03-11T10:29:41;10.23;;;5.63;;
3022;SDS011;1521;53.584;9.938;2023-03-11T10:32:25;6.00;;;3.30;;
3022;SDS011;1521;53.584;9.938;2023-03-11T10:35:03;6.00;;;3.77;;
3022;SDS011;1521;53.584;9.938;2023-03-11T10:37:53;4.20;;;2.70;;
3022;SDS011;1521;53.584;9.938;2023-03-11T10:40:31;7.10;;;3.20;;
3022;SDS011;1521;53.584;9.938;2023-03-11T10:43:02;5.07;;;3.27;;
3022;SDS011;1521;53.584;9.938;2023-03-11T10:45:32;10.37;;;3.10;;
3022;SDS011;1521;53.584;9.938;2023-03-11T10:48:12;10.90;;;3.40;;
3022;SDS011;1521;53.584;9.938;2023-03-11T10:50:45;7.47;;;3.67;;
3022;SDS011;1521;53.584;9.938;2023-03-11T10:53:19;7.03;;;3.67;;
3022;SDS011;1521;53.584;9.938;2023-03-11T10:55:49;8.23;;;3.13;;
3022;SDS011;1521;53.584;9.938;2023-03-11T10:58:20;4.97;;;3.13;;
3022;SDS011;1521;53.584;9.938;2023-03-11T11:01:01;7.93;;;3.53;;
3022;SDS011;1521;53.584;9.938;2023-03-11T11:03:41;6.50;;;3.40;;
3022;SDS011;1521;53.584;9.938;2023-03-11T11:06:20;6.67;;;3.37;;
3022;SDS011;1521;53.584;9.938;2023-03-11T11:09:09;5.80;;;2.83;;
3022;SDS011;1521;53.584;9.938;2023-03-11T11:11:59;11.50;;;3.80;;
3022;SDS011;1521;53.584;9.938;2023-03-11T11:14:25;7.30;;;3.13;;
3022;SDS011;1521;53.584;9.938;2023-03-11T11:17:05;6.50;;;2.70;;
3022;SDS011;1521;53.584;9.938;2023-03-11T11:19:46;9.47;;;3.20;;
3022;SDS011;1521;53.584;9.938;2023-03-11T11:22:17;5.33;;;3.27;;
3022;SDS011;1521;53.584;9.938;2023-03-11T11:24:45;7.07;;;3.03;;
3022;SDS011;1521;53.584;9.938;2023-03-11T11:27:27;6.07;;;3.10;;
3022;SDS011;1521;53.584;9.938;2023-03-11T11:32:39;9.83;;;3.23;;
3022;SDS011;1521;53.584;9.938;2023-03-11T11:35:07;5.63;;;2.40;;
3022;SDS011;1521;53.584;9.938;2023-03-11T11:37:40;6.27;;;2.97;;
3022;SDS011;1521;53.584;9.938;2023-03-11T11:42:45;2.50;;;2.00;;
3022;SDS011;1521;53.584;9.938;2023-03-11T11:45:33;9.07;;;2.60;;
3022;SDS011;1521;53.584;9.938;2023-03-11T11:48:03;6.93;;;2.80;;
3022;SDS011;1521;53.584;9.938;2023-03-11T11:50:36;3.37;;;2.00;;
3022;SDS011;1521;53.584;9.938;2023-03-11T11:55:49;9.30;;;1.90;;
3022;SDS011;1521;53.584;9.938;2023-03-11T11:58:18;5.83;;;2.50;;
3022;SDS011;1521;53.584;9.938;2023-03-11T12:00:47;5.37;;;1.80;;
3022;SDS011;1521;53.584;9.938;2023-03-11T12:05:58;7.50;;;1.33;;
3022;SDS011;1521;53.584;9.938;2023-03-11T12:08:41;4.47;;;1.57;;
3022;SDS011;1521;53.584;9.938;2023-03-11T12:16:42;3.47;;;1.27;;
3022;SDS011;1521;53.584;9.938;2023-03-11T12:19:42;4.03;;;1.10;;
3022;SDS011;1521;53.584;9.938;2023-03-11T12:22:32;2.40;;;1.03;;
3022;SDS011;1521;53.584;9.938;2023-03-11T12:27:48;5.40;;;1.63;;
3022;SDS011;1521;53.584;9.938;2023-03-11T12:30:20;3.50;;;1.33;;
3022;SDS011;1521;53.584;9.938;2023-03-11T12:32:52;3.20;;;1.20;;
3022;SDS011;1521;53.584;9.938;2023-03-11T12:35:24;2.30;;;0.87;;
3022;SDS011;1521;53.584;9.938;2023-03-11T12:38:06;3.77;;;1.20;;
3022;SDS011;1521;53.584;9.938;2023-03-11T12:46:00;2.60;;;0.90;;
3022;SDS011;1521;53.584;9.938;2023-03-11T12:48:49;2.20;;;1.10;;
3022;SDS011;1521;53.584;9.938;2023-03-11T12:56:58;2.43;;;1.07;;
3022;SDS011;1521;53.584;9.938;2023-03-11T13:07:50;6.10;;;1.50;;
3022;SDS011;1521;53.584;9.938;2023-03-11T13:10:34;4.30;;;1.37;;
3022;SDS011;1521;53.584;9.938;2023-03-11T13:13:01;3.97;;;1.23;;
3022;SDS011;1521;53.584;9.938;2023-03-11T13:15:45;4.43;;;1.53;;
3022;SDS011;1521;53.584;9.938;2023-03-11T13:28:18;6.57;;;1.57;;
3022;SDS011;1521;53.584;9.938;2023-03-11T13:31:03;13.50;;;5.47;;
3022;SDS011;1521;53.584;9.938;2023-03-11T13:33:46;5.73;;;1.63;;
3022;SDS011;1521;53.584;9.938;2023-03-11T13:38:55;3.77;;;1.43;;
3022;SDS011;1521;53.584;9.938;2023-03-11T13:41:43;6.27;;;1.70;;
3022;SDS011;1521;53.584;9.938;2023-03-11T13:44:15;2.77;;;1.50;;
3022;SDS011;1521;53.584;9.938;2023-03-11T13:47:03;7.80;;;1.50;;
3022;SDS011;1521;53.584;9.938;2023-03-11T13:52:07;4.20;;;1.30;;
3022;SDS011;1521;53.584;9.938;2023-03-11T13:54:40;3.43;;;1.60;;
3022;SDS011;1521;53.584;9.938;2023-03-11T13:57:21;6.50;;;1.10;;
3022;SDS011;1521;53.584;9.938;2023-03-11T13:59:51;5.73;;;1.53;;
3022;SDS011;1521;53.584;9.938;2023-03-11T14:02:18;2.27;;;1.27;;
3022;SDS011;1521;53.584;9.938;2023-03-11T14:04:47;2.17;;;1.20;;
3022;SDS011;1521;53.584;9.938;2023-03-11T14:07:25;7.13;;;1.20;;
3022;SDS011;1521;53.584;9.938;2023-03-11T14:12:41;3.07;;;0.90;;
3022;SDS011;1521;53.584;9.938;2023-03-11T14:15:07;7.23;;;1.20;;
3022;SDS011;1521;53.584;9.938;2023-03-11T14:17:36;3.37;;;1.00;;
3022;SDS011;1521;53.584;9.938;2023-03-11T14:22:31;3.40;;;1.40;;
3022;SDS011;1521;53.584;9.938;2023-03-11T14:24:59;4.23;;;1.40;;
3022;SDS011;1521;53.584;9.938;2023-03-11T14:27:29;4.97;;;1.10;;
3022;SDS011;1521;53.584;9.938;2023-03-11T14:29:54;5.20;;;1.10;;
3022;SDS011;1521;53.584;9.938;2023-03-11T14:32:27;2.70;;;1.20;;
3022;SDS011;1521;53.584;9.938;2023-03-11T14:34:55;7.70;;;1.30;;
3022;SDS011;1521;53.584;9.938;2023-03-11T14:37:23;1.93;;;1.10;;
3022;SDS011;1521;53.584;9.938;2023-03-11T14:39:49;2.60;;;1.20;;
3022;SDS011;1521;53.584;9.938;2023-03-11T14:44:47;3.90;;;1.30;;
3022;SDS011;1521;53.584;9.938;2023-03-11T14:47:31;2.60;;;1.07;;
3022;SDS011;1521;53.584;9.938;2023-03-11T14:50:01;4.93;;;1.20;;
3022;SDS011;1521;53.584;9.938;2023-03-11T14:54:58;1.60;;;1.07;;
3022;SDS011;1521;53.584;9.938;2023-03-11T15:00:00;5.20;;;1.30;;
3022;SDS011;1521;53.584;9.938;2023-03-11T15:02:37;3.13;;;1.23;;
3022;SDS011;1521;53.584;9.938;2023-03-11T15:05:12;2.37;;;1.27;;
3022;SDS011;1521;53.584;9.938;2023-03-11T15:07:47;2.17;;;1.13;;
3022;SDS011;1521;53.584;9.938;2023-03-11T15:10:15;2.47;;;1.20;;
3022;SDS011;1521;53.584;9.938;2023-03-11T15:12:41;7.23;;;1.60;;
3022;SDS011;1521;53.584;9.938;2023-03-11T15:15:23;5.90;;;1.20;;
3022;SDS011;1521;53.584;9.938;2023-03-11T15:17:51;2.40;;;1.20;;
3022;SDS011;1521;53.584;9.938;2023-03-11T15:20:26;4.90;;;1.60;;
3022;SDS011;1521;53.584;9.938;2023-03-11T15:23:04;8.80;;;1.30;;
3022;SDS011;1521;53.584;9.938;2023-03-11T15:25:32;2.90;;;1.43;;
3022;SDS011;1521;53.584;9.938;2023-03-11T15:34:10;5.53;;;1.50;;
3022;SDS011;1521;53.584;9.938;2023-03-11T15:37:26;4.43;;;1.67;;
3022;SDS011;1521;53.584;9.938;2023-03-11T15:42:00;8.10;;;1.43;;
3022;SDS011;1521;53.584;9.938;2023-03-11T15:44:35;2.87;;;1.30;;
3022;SDS011;1521;53.584;9.938;2023-03-11T15:47:05;3.63;;;1.30;;
3022;SDS011;1521;53.584;9.938;2023-03-11T15:49:43;2.70;;;1.33;;
3022;SDS011;1521;53.584;9.938;2023-03-11T15:52:09;5.27;;;1.83;;
3022;SDS011;1521;53.584;9.938;2023-03-11T15:54:35;6.77;;;2.00;;
3022;SDS011;1521;53.584;9.938;2023-03-11T15:57:01;6.33;;;2.10;;
3022;SDS011;1521;53.584;9.938;2023-03-11T15:59:30;5.90;;;1.77;;
3022;SDS011;1521;53.584;9.938;2023-03-11T16:01:58;3.40;;;1.67;;
3022;SDS011;1521;53.584;9.938;2023-03-11T16:04:23;6.10;;;1.87;;
3022;SDS011;1521;53.584;9.938;2023-03-11T16:06:49;4.77;;;1.73;;
3022;SDS011;1521;53.584;9.938;2023-03-11T16:09:15;6.10;;;2.13;;
3022;SDS011;1521;53.584;9.938;2023-03-11T16:11:41;7.40;;;2.30;;
3022;SDS011;1521;53.584;9.938;2023-03-11T16:14:17;5.83;;;2.33;;
3022;SDS011;1521;53.584;9.938;2023-03-11T16:16:45;4.33;;;2.90;;
3022;SDS011;1521;53.584;9.938;2023-03-11T16:19:11;5.70;;;2.43;;
3022;SDS011;1521;53.584;9.938;2023-03-11T16:21:41;5.10;;;2.30;;
3022;SDS011;1521;53.584;9.938;2023-03-11T16:24:18;4.47;;;2.67;;
3022;SDS011;1521;53.584;9.938;2023-03-11T16:26:46;6.93;;;2.77;;
3022;SDS011;1521;53.584;9.938;2023-03-11T16:29:12;5.07;;;2.90;;
3022;SDS011;1521;53.584;9.938;2023-03-11T16:31:39;8.07;;;2.97;;
3022;SDS011;1521;53.584;9.938;2023-03-11T16:34:05;9.00;;;3.30;;
3022;SDS011;1521;53.584;9.938;2023-03-11T16:36:30;5.83;;;3.20;;
3022;SDS011;1521;53.584;9.938;2023-03-11T16:38:56;11.07;;;3.43;;
3022;SDS011;1521;53.584;9.938;2023-03-11T16:41:21;4.33;;;2.83;;
3022;SDS011;1521;53.584;9.938;2023-03-11T16:43:47;7.57;;;3.33;;
3022;SDS011;1521;53.584;9.938;2023-03-11T16:46:13;6.37;;;3.63;;
3022;SDS011;1521;53.584;9.938;2023-03-11T16:48:38;5.93;;;2.80;;
3022;SDS011;1521;53.584;9.938;2023-03-11T16:51:04;6.20;;;3.90;;
3022;SDS011;1521;53.584;9.938;2023-03-11T16:53:30;6.03;;;3.87;;
3022;SDS011;1521;53.584;9.938;2023-03-11T16:55:55;8.63;;;4.40;;